createdAt,value
2022-12-05T00:00:01.488Z,100966.34
2022-12-05T00:02:33.267Z,100964.75
2022-12-05T00:05:02.122Z,100962.66
2022-12-05T00:07:30.981Z,100957.19
2022-12-05T00:10:00.227Z,100955.41
2022-12-05T00:12:29.180Z,100954.78
2022-12-05T00:14:58.150Z,100956.03
2022-12-05T00:17:26.956Z,100957.78
2022-12-05T00:19:57.109Z,100963.13
2022-12-05T00:22:27.341Z,100966.34
2022-12-05T00:24:56.407Z,100961.84
2022-12-05T00:27:25.450Z,100965.06
2022-12-05T00:29:54.512Z,100960.88
2022-12-05T00:32:24.266Z,100971.19
2022-12-05T00:34:58.536Z,100978.25
2022-12-05T00:37:27.462Z,100975.06
2022-12-05T00:39:56.709Z,100973.59
2022-12-05T00:42:25.808Z,100967.97
2022-12-05T00:44:54.841Z,100980.16
2022-12-05T00:47:23.752Z,100976.00
2022-12-05T00:49:52.744Z,100976.47
2022-12-05T00:52:22.056Z,100966.34
2022-12-05T00:54:51.042Z,100968.13
2022-12-05T00:57:19.966Z,100966.38
2022-12-05T00:59:48.760Z,100973.44
2022-12-05T01:02:27.174Z,100979.41
2022-12-05T01:04:58.972Z,100987.59
2022-12-05T01:07:28.111Z,100987.41
2022-12-05T01:09:57.400Z,100986.31
2022-12-05T01:12:26.735Z,100984.84
2022-12-05T01:18:48.893Z,100982.09
2022-12-05T01:19:30.469Z,100982.44
2022-12-05T01:21:17.938Z,100980.16
2022-12-05T01:23:46.776Z,100971.97
2022-12-05T01:26:18.117Z,100975.97
2022-12-05T01:28:48.101Z,100970.44
2022-12-05T01:31:30.136Z,100972.44
2022-12-05T01:34:04.982Z,100979.53
2022-12-05T01:36:34.783Z,100978.06
2022-12-05T01:39:04.340Z,100968.56
2022-12-05T01:41:36.660Z,100973.09
2022-12-05T01:44:14.993Z,100961.47
2022-12-05T01:46:50.921Z,100965.13
2022-12-05T01:49:33.791Z,100962.13
2022-12-05T01:52:10.487Z,100962.78
2022-12-05T01:54:41.774Z,100966.59
2022-12-05T01:57:15.933Z,100959.53
2022-12-05T01:59:51.125Z,100952.28
2022-12-05T02:02:20.934Z,100955.13
2022-12-05T02:05:03.205Z,100959.47
2022-12-05T02:07:38.708Z,100959.81
2022-12-05T02:10:35.073Z,100949.47
2022-12-05T02:13:31.202Z,100950.13
2022-12-05T02:16:19.958Z,100942.13
2022-12-05T02:19:11.102Z,100938.59
2022-12-05T02:22:02.036Z,100934.41
2022-12-05T02:24:54.723Z,100942.13
2022-12-05T02:27:53.558Z,100930.44
2022-12-05T02:30:24.568Z,100927.22
2022-12-05T02:33:24.545Z,100930.31
2022-12-05T02:36:11.574Z,100925.81
2022-12-05T02:38:49.397Z,100930.31
2022-12-05T02:41:21.733Z,100921.44
2022-12-05T02:44:16.919Z,100922.22
2022-12-05T02:46:49.609Z,100936.50
2022-12-05T02:49:24.232Z,100941.53
2022-12-05T02:51:57.907Z,100949.19
2022-12-05T02:54:36.541Z,100943.97
2022-12-05T02:57:06.799Z,100937.38
2022-12-05T02:59:35.644Z,100946.06
2022-12-05T03:02:04.767Z,100956.19
2022-12-05T03:04:34.301Z,100960.72
2022-12-05T03:07:13.279Z,100965.38
2022-12-05T03:10:01.404Z,100969.53
2022-12-05T03:12:45.548Z,100968.41
2022-12-05T03:15:23.034Z,100974.22
2022-12-05T03:18:05.371Z,100966.34
2022-12-05T03:20:39.913Z,100981.16
2022-12-05T03:23:25.922Z,100977.44
2022-12-05T03:26:18.605Z,100976.00
2022-12-05T03:28:56.649Z,100976.81
2022-12-05T03:32:08.844Z,100976.97
2022-12-05T03:34:49.247Z,100985.00
2022-12-05T03:37:40.142Z,100979.88
2022-12-05T03:40:36.294Z,100977.78
2022-12-05T03:43:14.099Z,100981.97
2022-12-05T03:45:59.620Z,100981.31
2022-12-05T03:48:59.536Z,100986.00
2022-12-05T03:51:46.554Z,100986.94
2022-12-05T03:54:35.081Z,100992.72
2022-12-05T03:57:44.933Z,100990.00
2022-12-05T04:00:26.195Z,100989.19
2022-12-05T04:03:16.228Z,100987.13
2022-12-05T04:05:53.509Z,100989.84
2022-12-05T04:08:25.989Z,100997.88
2022-12-05T04:11:00.585Z,101006.59
2022-12-05T04:13:43.099Z,101001.25
2022-12-05T04:16:30.434Z,100997.88
2022-12-05T04:19:01.561Z,100995.97
2022-12-05T04:21:41.497Z,100994.03
2022-12-05T04:24:50.213Z,100992.75
2022-12-05T04:27:24.500Z,101001.59
2022-12-05T04:30:05.742Z,100994.03
2022-12-05T04:32:48.590Z,100994.34
2022-12-05T04:35:27.073Z,101002.72
2022-12-05T04:38:04.120Z,100992.09
2022-12-05T04:40:43.744Z,101003.34
2022-12-05T04:43:15.330Z,101004.00
2022-12-05T04:45:45.616Z,101002.03
2022-12-05T04:48:19.205Z,101009.56
2022-12-05T04:50:50.642Z,101010.72
2022-12-05T04:53:20.530Z,101002.84
2022-12-05T04:55:53.607Z,101010.28
2022-12-05T04:58:25.824Z,101011.09
2022-12-05T05:01:10.952Z,101012.88
2022-12-05T05:03:49.710Z,101016.22
2022-12-05T05:06:19.134Z,101018.81
2022-12-05T05:08:56.931Z,101009.16
2022-12-05T05:11:30.811Z,101013.34
2022-12-05T05:13:59.971Z,101017.53
2022-12-05T05:16:43.446Z,101023.66
2022-12-05T05:19:13.782Z,101025.41
2022-12-05T05:21:44.021Z,101032.34
2022-12-05T05:24:13.627Z,101031.69
2022-12-05T05:26:45.019Z,101033.94
2022-12-05T05:29:15.683Z,101039.06
2022-12-05T05:31:44.769Z,101042.94
2022-12-05T05:34:15.949Z,101039.88
2022-12-05T05:36:44.934Z,101036.34
2022-12-05T05:39:16.053Z,101032.00
2022-12-05T05:41:45.332Z,101041.00
2022-12-05T05:44:14.131Z,101036.16
2022-12-05T05:46:43.076Z,101032.16
2022-12-05T05:49:11.890Z,101036.47
2022-12-05T05:51:40.936Z,101031.34
2022-12-05T05:54:11.485Z,101029.88
2022-12-05T05:56:45.510Z,101027.81
2022-12-05T05:59:14.700Z,101037.94
2022-12-05T06:01:43.985Z,101051.09
2022-12-05T06:04:12.930Z,101057.69
2022-12-05T06:06:42.067Z,101054.28
2022-12-05T06:09:11.125Z,101060.25
2022-12-05T06:11:40.247Z,101057.69
2022-12-05T06:14:22.261Z,101064.28
2022-12-05T06:17:20.380Z,101058.63
2022-12-05T06:19:51.201Z,101057.50
2022-12-05T06:22:20.491Z,101059.94
2022-12-05T06:24:49.959Z,101057.31
2022-12-05T06:27:19.245Z,101062.00
2022-12-05T06:29:48.794Z,101063.44
2022-12-05T06:32:17.598Z,101061.47
2022-12-05T06:34:49.277Z,101069.81
2022-12-05T06:37:18.197Z,101067.56
2022-12-05T06:39:47.359Z,101069.81
2022-12-05T06:42:16.256Z,101060.94
2022-12-05T06:44:45.094Z,101064.59
2022-12-05T06:47:13.927Z,101064.59
2022-12-05T06:49:43.011Z,101060.78
2022-12-05T06:52:11.876Z,101065.72
2022-12-05T06:54:40.703Z,101066.84
2022-12-05T06:57:10.430Z,101069.09
2022-12-05T06:59:39.317Z,101071.66
2022-12-05T07:02:09.265Z,101076.81
2022-12-05T07:04:38.241Z,101077.47
2022-12-05T07:07:07.373Z,101079.19
2022-12-05T07:09:52.066Z,101073.41
2022-12-05T07:12:21.211Z,101078.69
2022-12-05T07:14:50.490Z,101088.63
2022-12-05T07:17:21.629Z,101086.22
2022-12-05T07:19:52.062Z,101098.09
2022-12-05T07:22:22.602Z,101093.09
2022-12-05T07:24:54.006Z,101093.75
2022-12-05T07:27:27.325Z,101094.88
2022-12-05T07:29:57.797Z,101102.84
2022-12-05T07:32:26.929Z,101100.44
2022-12-05T07:34:55.879Z,101104.94
2022-12-05T07:37:24.781Z,101101.69
2022-12-05T07:39:54.385Z,101102.31
2022-12-05T07:42:23.176Z,101106.16
2022-12-05T07:44:52.132Z,101105.66
2022-12-05T07:47:21.105Z,101104.56
2022-12-05T07:49:49.919Z,101104.94
2022-12-05T07:52:18.713Z,101108.47
2022-12-05T07:54:47.503Z,101107.50
2022-12-05T07:57:16.367Z,101107.03
2022-12-05T07:59:45.197Z,101113.22
2022-12-05T08:02:14.151Z,101107.78
2022-12-05T08:04:43.107Z,101102.31
2022-12-05T08:07:12.506Z,101094.97
2022-12-05T08:09:41.431Z,101098.19
2022-12-05T08:12:10.294Z,101089.53
2022-12-05T08:14:39.113Z,101092.63
2022-12-05T08:17:10.075Z,101084.91
2022-12-05T08:19:39.176Z,101087.53
2022-12-05T08:22:07.995Z,101084.16
2022-12-05T08:24:36.921Z,101085.66
2022-12-05T08:27:06.881Z,101088.88
2022-12-05T08:29:35.791Z,101083.88
2022-12-05T08:32:04.659Z,101079.06
2022-12-05T08:34:33.773Z,101077.13
2022-12-05T08:37:02.547Z,101070.34
2022-12-05T08:39:38.006Z,101079.94
2022-12-05T08:42:07.485Z,101076.81
2022-12-05T08:44:36.223Z,101072.31
2022-12-05T08:47:05.105Z,101070.56
2022-12-05T08:49:34.032Z,101066.84
2022-12-05T08:52:02.878Z,101067.97
2022-12-05T08:54:34.392Z,101062.53
2022-12-05T08:57:03.485Z,101061.22
2022-12-05T08:59:32.566Z,101061.88
2022-12-05T09:02:01.498Z,101070.91
2022-12-05T09:04:30.350Z,101061.22
2022-12-05T09:07:02.285Z,101060.75
2022-12-05T09:09:33.996Z,101059.09
2022-12-05T09:12:02.984Z,101055.41
2022-12-05T09:14:33.835Z,101060.81
2022-12-05T09:17:03.058Z,101054.28
2022-12-05T09:19:32.054Z,101056.22
2022-12-05T09:22:00.917Z,101060.06
2022-12-05T09:24:29.725Z,101054.13
2022-12-05T09:26:58.785Z,101048.78
2022-12-05T09:29:30.284Z,101057.47
2022-12-05T09:31:59.185Z,101061.81
2022-12-05T09:34:28.756Z,101057.66
2022-12-05T09:37:16.638Z,101053.00
2022-12-05T09:39:47.884Z,101055.84
2022-12-05T09:42:31.915Z,101056.84
2022-12-05T09:45:16.665Z,101061.56
2022-12-05T09:47:58.864Z,101059.97
2022-12-05T09:50:29.215Z,101065.69
2022-12-05T09:53:12.125Z,101067.03
2022-12-05T09:55:53.703Z,101065.09
2022-12-05T09:58:32.113Z,101075.38
2022-12-05T10:01:18.910Z,101067.94
2022-12-05T10:04:14.205Z,101067.69
2022-12-05T10:07:03.203Z,101068.44
2022-12-05T10:09:32.003Z,101066.34
2022-12-05T10:12:31.295Z,101066.69
2022-12-05T10:15:11.873Z,101066.34
2022-12-05T10:17:47.151Z,101063.91
2022-12-05T10:20:43.473Z,101079.13
2022-12-05T10:23:56.606Z,101076.50
2022-12-05T10:26:23.914Z,101087.56
2022-12-05T10:28:58.626Z,101091.50
2022-12-05T10:31:37.198Z,101096.97
2022-12-05T10:34:23.442Z,101091.16
2022-12-05T10:37:20.034Z,101095.13
2022-12-05T10:39:51.295Z,101085.88
2022-12-05T10:42:30.093Z,101103.22
2022-12-05T10:45:06.056Z,101086.06
2022-12-05T10:47:36.304Z,101090.97
2022-12-05T10:50:18.402Z,101094.84
2022-12-05T10:52:48.887Z,101084.75
2022-12-05T10:55:19.884Z,101086.56
2022-12-05T10:57:53.110Z,101084.56
2022-12-05T11:00:25.978Z,101078.81
2022-12-05T11:02:55.864Z,101081.47
2022-12-05T11:05:34.861Z,101077.25
2022-12-05T11:08:03.952Z,101085.25
2022-12-05T11:10:39.734Z,101078.94
2022-12-05T11:13:26.819Z,101090.00
2022-12-05T11:15:55.935Z,101080.91
2022-12-05T11:18:34.018Z,101072.75
2022-12-05T11:21:16.841Z,101062.22
2022-12-05T11:23:45.836Z,101057.47
2022-12-05T11:26:38.022Z,101048.88
2022-12-05T11:29:39.333Z,101044.72
2022-12-05T11:32:23.639Z,101040.22
2022-12-05T11:35:02.554Z,101051.84
2022-12-05T11:37:39.741Z,101040.38
2022-12-05T11:40:30.938Z,101044.41
2022-12-05T11:43:25.869Z,101029.72
2022-12-05T11:46:13.205Z,101041.66
2022-12-05T11:49:00.810Z,101047.22
2022-12-05T11:52:00.085Z,101037.50
2022-12-05T11:55:13.537Z,101041.38
2022-12-05T11:57:52.291Z,101039.13
2022-12-05T12:00:26.390Z,101043.59
2022-12-05T12:02:58.311Z,101042.50
2022-12-05T12:05:48.289Z,101037.66
2022-12-05T12:08:28.434Z,101032.69
2022-12-05T12:11:07.383Z,101030.53
2022-12-05T12:14:05.750Z,101019.34
2022-12-05T12:17:21.903Z,101020.41
2022-12-05T12:20:10.539Z,101019.31
2022-12-05T12:22:58.876Z,101013.59
2022-12-05T12:25:45.382Z,101014.00
2022-12-05T12:28:23.178Z,101012.75
2022-12-05T12:31:13.653Z,101021.06
2022-12-05T12:33:52.466Z,101034.88
2022-12-05T12:36:46.174Z,101029.94
2022-12-05T12:39:27.579Z,101046.28
2022-12-05T12:42:02.465Z,101044.81
2022-12-05T12:44:47.681Z,101040.38
2022-12-05T12:47:22.702Z,101045.19
2022-12-05T12:50:23.084Z,101042.72
2022-12-05T12:53:29.496Z,101038.31
2022-12-05T12:56:12.887Z,101035.59
2022-12-05T12:58:59.807Z,101037.03
2022-12-05T13:01:32.277Z,101030.44
2022-12-05T13:04:13.108Z,101036.69
2022-12-05T13:06:42.096Z,101039.78
2022-12-05T13:09:25.136Z,101050.50
2022-12-05T13:11:59.055Z,101058.03
2022-12-05T13:14:30.502Z,101066.84
2022-12-05T13:17:20.347Z,101062.09
2022-12-05T13:20:26.181Z,101054.25
2022-12-05T13:23:00.895Z,101057.69
2022-12-05T13:25:41.295Z,101054.56
2022-12-05T13:28:43.089Z,101067.03
2022-12-05T13:31:17.418Z,101055.25
2022-12-05T13:33:49.146Z,101053.66
2022-12-05T13:36:40.922Z,101050.25
2022-12-05T13:39:34.273Z,101050.09
2022-12-05T13:42:18.248Z,101049.34
2022-12-05T13:44:54.978Z,101056.03
2022-12-05T13:47:26.707Z,101058.81
2022-12-05T13:50:04.218Z,101060.59
2022-12-05T13:52:42.902Z,101060.22
2022-12-05T13:55:23.728Z,101056.34
2022-12-05T13:57:55.156Z,101053.13
2022-12-05T14:00:37.946Z,101064.53
2022-12-05T14:03:35.902Z,101057.69
2022-12-05T14:06:05.560Z,101058.88
2022-12-05T14:08:38.424Z,101057.16
2022-12-05T14:11:09.327Z,101067.69
2022-12-05T14:13:42.921Z,101057.59
2022-12-05T14:16:27.157Z,101068.84
2022-12-05T14:19:27.648Z,101072.78
2022-12-05T14:22:16.901Z,101058.69
2022-12-05T14:25:27.092Z,101053.19
2022-12-05T14:28:20.330Z,101057.13
2022-12-05T14:31:07.585Z,101056.75
2022-12-05T14:33:36.805Z,101061.63
2022-12-05T14:36:09.091Z,101064.22
2022-12-05T14:38:38.748Z,101073.28
2022-12-05T14:41:27.285Z,101070.94
2022-12-05T14:43:57.653Z,101067.56
2022-12-05T14:46:35.833Z,101064.22
2022-12-05T14:49:51.452Z,101066.03
2022-12-05T14:52:24.876Z,101056.75
2022-12-05T14:54:59.523Z,101064.31
2022-12-05T14:57:30.137Z,101066.69
2022-12-05T15:00:07.814Z,101068.63
2022-12-05T15:02:43.372Z,101066.06
2022-12-05T15:05:29.293Z,101073.25
2022-12-05T15:08:00.816Z,101080.81
2022-12-05T15:10:40.798Z,101074.97
2022-12-05T15:13:18.742Z,101072.94
2022-12-05T15:15:59.534Z,101074.16
2022-12-05T15:18:35.506Z,101083.66
2022-12-05T15:21:24.938Z,101081.22
2022-12-05T15:24:02.379Z,101084.19
2022-12-05T15:26:49.734Z,101091.78
2022-12-05T15:29:23.906Z,101093.31
2022-12-05T15:32:07.482Z,101093.59
2022-12-05T15:34:48.441Z,101094.91
2022-12-05T15:37:28.350Z,101093.03
2022-12-05T15:40:15.024Z,101082.91
2022-12-05T15:42:49.769Z,101086.69
2022-12-05T15:45:25.196Z,101083.56
2022-12-05T15:48:09.347Z,101082.41
2022-12-05T15:50:44.315Z,101080.09
2022-12-05T15:53:22.355Z,101095.19
2022-12-05T15:56:17.394Z,101084.91
2022-12-05T15:59:12.448Z,101083.94
2022-12-05T16:01:46.420Z,101071.25
2022-12-05T16:04:43.630Z,101075.47
2022-12-05T16:07:15.823Z,101077.16
2022-12-05T16:09:47.061Z,101073.75
2022-12-05T16:12:32.124Z,101074.75
2022-12-05T16:15:05.808Z,101060.13
2022-12-05T16:17:46.724Z,101063.06
2022-12-05T16:20:18.754Z,101057.88
2022-12-05T16:22:50.417Z,101065.97
2022-12-05T16:25:28.233Z,101059.38
2022-12-05T16:28:00.418Z,101058.59
2022-12-05T16:30:32.376Z,101055.16
2022-12-05T16:33:06.236Z,101055.50
2022-12-05T16:35:46.927Z,101053.03
2022-12-05T16:38:15.744Z,101052.66
2022-12-05T16:40:47.682Z,101056.22
2022-12-05T16:43:29.910Z,101061.66
2022-12-05T16:46:16.374Z,101067.06
2022-12-05T16:48:51.919Z,101068.13
2022-12-05T16:51:29.398Z,101075.53
2022-12-05T16:53:58.303Z,101078.97
2022-12-05T16:56:34.586Z,101091.31
2022-12-05T16:59:10.704Z,101092.53
2022-12-05T17:01:40.165Z,101094.38
2022-12-05T17:04:12.169Z,101095.91
2022-12-05T17:06:41.234Z,101092.66
2022-12-05T17:09:12.445Z,101082.84
2022-12-05T17:11:45.723Z,101087.91
2022-12-05T17:14:17.268Z,101085.69
2022-12-05T17:16:46.597Z,101081.81
2022-12-05T17:19:15.662Z,101092.13
2022-12-05T17:21:45.526Z,101094.25
2022-12-05T17:24:18.129Z,101095.19
2022-12-05T17:26:48.210Z,101096.44
2022-12-05T17:29:17.254Z,101093.94
2022-12-05T17:31:46.461Z,101091.75
2022-12-05T17:34:18.202Z,101093.50
2022-12-05T17:36:47.310Z,101102.56
2022-12-05T17:39:16.064Z,101106.34
2022-12-05T17:41:45.072Z,101099.66
2022-12-05T17:44:15.579Z,101098.94
2022-12-05T17:46:45.252Z,101098.97
2022-12-05T17:49:16.753Z,101102.88
2022-12-05T17:52:20.069Z,101111.56
2022-12-05T17:54:35.747Z,101103.31
2022-12-05T17:57:04.618Z,101102.13
2022-12-05T17:59:33.800Z,101100.38
2022-12-05T18:02:02.516Z,101108.09
2022-12-05T18:04:31.369Z,101115.84
2022-12-05T18:07:00.446Z,101124.91
2022-12-05T18:09:29.434Z,101118.75
2022-12-05T18:11:58.523Z,101128.69
2022-12-05T18:14:29.049Z,101134.84
2022-12-05T18:16:58.804Z,101127.34
2022-12-05T18:19:27.833Z,101125.50
2022-12-05T18:21:56.618Z,101118.59
2022-12-05T18:24:25.523Z,101116.72
2022-12-05T18:26:56.609Z,101113.19
2022-12-05T18:29:25.632Z,101114.72
2022-12-05T18:31:54.486Z,101120.41
2022-12-05T18:34:23.364Z,101112.56
2022-12-05T18:36:52.564Z,101110.00
2022-12-05T18:39:21.625Z,101116.00
2022-12-05T18:41:50.439Z,101114.38
2022-12-05T18:44:19.766Z,101115.19
2022-12-05T18:46:48.563Z,101119.78
2022-12-05T18:49:17.348Z,101111.88
2022-12-05T18:51:46.807Z,101120.25
2022-12-05T18:54:15.778Z,101121.72
2022-12-05T18:56:46.672Z,101124.44
2022-12-05T18:59:19.548Z,101130.59
2022-12-05T19:01:49.531Z,101132.19
2022-12-05T19:04:21.350Z,101130.28
2022-12-05T19:06:55.350Z,101122.50
2022-12-05T19:09:27.327Z,101126.56
2022-12-05T19:12:01.496Z,101129.09
2022-12-05T19:14:33.688Z,101137.00
2022-12-05T19:17:03.780Z,101134.09
2022-12-05T19:19:32.745Z,101130.72
2022-12-05T19:22:02.831Z,101129.91
2022-12-05T19:24:31.780Z,101130.25
2022-12-05T19:27:00.944Z,101114.78
2022-12-05T19:29:29.994Z,101122.50
2022-12-05T19:32:11.451Z,101119.91
2022-12-05T19:34:41.143Z,101122.81
2022-12-05T19:37:10.381Z,101122.38
2022-12-05T19:39:40.038Z,101122.50
2022-12-05T19:42:09.842Z,101120.22
2022-12-05T19:44:39.558Z,101115.41
2022-12-05T19:47:11.887Z,101114.47
2022-12-05T19:49:46.852Z,101111.56
2022-12-05T19:52:18.505Z,101108.00
2022-12-05T19:54:47.393Z,101102.47
2022-12-05T19:57:18.757Z,101102.38
2022-12-05T19:59:48.466Z,101112.41
2022-12-05T20:02:21.761Z,101116.28
2022-12-05T20:04:50.897Z,101124.69
2022-12-05T20:07:19.730Z,101126.28
2022-12-05T20:09:48.565Z,101122.41
2022-12-05T20:12:17.327Z,101111.94
2022-12-05T20:14:46.154Z,101108.38
2022-12-05T20:17:14.898Z,101106.44
2022-12-05T20:19:43.784Z,101113.72
2022-12-05T20:22:12.583Z,101105.97
2022-12-05T20:24:41.383Z,101102.69
2022-12-05T20:27:10.206Z,101106.78
2022-12-05T20:29:39.814Z,101099.63
2022-12-05T20:32:12.923Z,101092.81
2022-12-05T20:34:42.041Z,101090.06
2022-12-05T20:37:11.990Z,101098.38
2022-12-05T20:39:44.171Z,101089.06
2022-12-05T20:42:13.198Z,101088.69
2022-12-05T20:44:42.398Z,101087.41
2022-12-05T20:47:11.261Z,101074.44
2022-12-05T20:49:40.289Z,101088.63
2022-12-05T20:52:09.143Z,101088.25
2022-12-05T20:54:37.953Z,101086.78
2022-12-05T20:57:07.109Z,101090.94
2022-12-05T20:59:35.871Z,101089.34
2022-12-05T21:02:04.888Z,101084.53
2022-12-05T21:04:34.116Z,101088.25
2022-12-05T21:07:02.916Z,101081.75
2022-12-05T21:09:32.700Z,101076.06
2022-12-05T21:12:01.880Z,101087.78
2022-12-05T21:14:30.854Z,101077.09
2022-12-05T21:16:59.738Z,101085.16
2022-12-05T21:19:29.433Z,101082.47
2022-12-05T21:21:58.277Z,101088.78
2022-12-05T21:24:27.367Z,101087.59
2022-12-05T21:26:59.329Z,101074.53
2022-12-05T21:29:28.472Z,101077.75
2022-12-05T21:32:00.546Z,101084.66
2022-12-05T21:34:32.157Z,101085.59
2022-12-05T21:37:04.022Z,101085.59
2022-12-05T21:39:32.926Z,101085.03
2022-12-05T21:42:01.758Z,101087.00
2022-12-05T21:44:31.379Z,101085.06
2022-12-05T21:47:00.538Z,101084.13
2022-12-05T21:49:29.406Z,101078.91
2022-12-05T21:51:58.517Z,101076.06
2022-12-05T21:54:27.364Z,101076.63
2022-12-05T21:56:56.331Z,101075.66
2022-12-05T21:59:26.171Z,101076.72
2022-12-05T22:01:55.668Z,101081.22
2022-12-05T22:04:25.676Z,101080.00
2022-12-05T22:06:55.277Z,101079.25
2022-12-05T22:09:24.456Z,101064.91
2022-12-05T22:11:53.231Z,101073.81
2022-12-05T22:14:22.322Z,101076.78
2022-12-05T22:16:51.419Z,101079.06
2022-12-05T22:19:22.899Z,101073.34
2022-12-05T22:21:52.328Z,101090.03
2022-12-05T22:24:21.386Z,101090.97
2022-12-05T22:26:52.772Z,101088.22
2022-12-05T22:29:27.366Z,101098.34
2022-12-05T22:32:01.762Z,101099.34
2022-12-05T22:34:30.826Z,101095.66
2022-12-05T22:37:00.095Z,101083.28
2022-12-05T22:39:31.108Z,101092.66
2022-12-05T22:42:00.288Z,101088.56
2022-12-05T22:44:29.206Z,101095.41
2022-12-05T22:46:58.427Z,101098.06
2022-12-05T22:49:27.668Z,101092.72
2022-12-05T22:51:56.641Z,101091.25
2022-12-05T22:54:30.082Z,101099.66
2022-12-05T22:56:59.508Z,101100.97
2022-12-05T22:59:28.466Z,101096.66
2022-12-05T23:01:57.991Z,101103.09
2022-12-05T23:04:28.283Z,101100.34
2022-12-05T23:06:57.265Z,101106.63
2022-12-05T23:09:26.070Z,101100.63
2022-12-05T23:11:54.956Z,101110.41
2022-12-05T23:14:23.757Z,101111.13
2022-12-05T23:16:52.721Z,101103.94
2022-12-05T23:19:22.518Z,101113.16
2022-12-05T23:21:51.510Z,101119.91
2022-12-05T23:24:20.340Z,101112.53
2022-12-05T23:26:49.332Z,101118.69
2022-12-05T23:29:21.488Z,101115.09
2022-12-05T23:31:50.346Z,101108.72
2022-12-05T23:34:19.422Z,101108.91
2022-12-05T23:36:48.341Z,101105.72
2022-12-05T23:39:20.563Z,101104.63
2022-12-05T23:41:49.960Z,101105.25
2022-12-05T23:44:18.954Z,101103.16
2022-12-05T23:46:47.861Z,101103.09
2022-12-05T23:49:17.187Z,101101.94
2022-12-05T23:51:46.320Z,101101.28
2022-12-05T23:54:17.409Z,101099.13
2022-12-05T23:56:46.445Z,101096.06
2022-12-05T23:59:15.329Z,101097.41
